Time;durP1;ratioP1;P1;durP2;ratioP2;P2;SDS_P1;SDS_P2;PMS_P1;PMS_P2;Temp;Humidity;BMP_temperature;BMP_pressure;BME280_temperature;BME280_humidity;BME280_pressure;Samples;Min_cycle;Max_cycle;Signal;HPM_P1;HPM_P2
2024/04/05 00:01:18;;;;;;;3.10;1.57;;;11.40;99.90;;;;;;5007644;28;20536;-54
2024/04/05 00:03:44;;;;;;;4.77;1.50;;;11.40;99.90;;;;;;5014946;28;20485;-52
2024/04/05 00:06:10;;;;;;;4.93;1.73;;;11.50;99.90;;;;;;5014743;28;20423;-54
2024/04/05 00:08:36;;;;;;;3.47;1.87;;;11.60;99.90;;;;;;5015241;28;20194;-54
2024/04/05 00:11:02;;;;;;;3.40;2.07;;;11.60;99.90;;;;;;4997701;28;20517;-53
2024/04/05 00:13:27;;;;;;;1.70;1.60;;;11.60;99.90;;;;;;5014655;28;20192;-52
2024/04/05 00:15:53;;;;;;;3.23;1.67;;;11.50;99.90;;;;;;5014498;28;20191;-59
2024/04/05 00:18:20;;;;;;;5.20;1.83;;;11.60;99.90;;;;;;5014994;28;20323;-52
2024/04/05 00:20:45;;;;;;;7.27;2.33;;;11.60;99.90;;;;;;5014769;28;20270;-55
2024/04/05 00:23:11;;;;;;;3.73;1.97;;;11.60;99.90;;;;;;5014215;28;21052;-57
2024/04/05 00:25:37;;;;;;;4.97;2.70;;;11.60;99.90;;;;;;5014129;28;20705;-52
2024/04/05 00:28:02;;;;;;;4.00;1.50;;;11.60;99.90;;;;;;4995362;28;20242;-50
2024/04/05 00:30:28;;;;;;;5.17;1.87;;;11.70;99.90;;;;;;5009583;28;20195;-50
2024/04/05 00:32:53;;;;;;;6.33;1.53;;;11.70;99.90;;;;;;5014563;28;20587;-52
2024/04/05 00:35:19;;;;;;;3.50;1.57;;;11.60;99.90;;;;;;5014457;28;20219;-57
2024/04/05 00:37:45;;;;;;;3.23;2.03;;;11.70;99.90;;;;;;5014418;28;20188;-53
2024/04/05 00:40:10;;;;;;;3.37;2.17;;;11.70;99.90;;;;;;5014102;28;20234;-53
2024/04/05 00:42:37;;;;;;;4.27;1.20;;;11.60;99.90;;;;;;5014495;28;20291;-54
2024/04/05 00:45:06;;;;;;;2.30;1.40;;;11.60;99.90;;;;;;5014073;28;20552;-51
2024/04/05 00:47:35;;;;;;;7.03;2.10;;;11.70;99.90;;;;;;5009879;28;20419;-54
2024/04/05 00:50:04;;;;;;;6.70;1.70;;;11.70;99.90;;;;;;5014451;28;20445;-50
2024/04/05 00:52:31;;;;;;;3.70;2.20;;;11.70;99.90;;;;;;5014586;28;20790;-53
2024/04/05 00:54:58;;;;;;;1.30;1.20;;;11.70;99.90;;;;;;5014000;28;20517;-54
2024/04/05 00:57:24;;;;;;;14.13;1.77;;;11.70;99.90;;;;;;5013657;28;20431;-59
2024/04/05 00:59:50;;;;;;;3.43;1.47;;;11.70;99.90;;;;;;4999597;28;20456;-54
2024/04/05 01:02:16;;;;;;;6.67;1.80;;;11.60;99.90;;;;;;5005452;28;20463;-59
2024/04/05 01:04:42;;;;;;;2.67;1.30;;;11.60;99.90;;;;;;5011988;28;20612;-56
2024/04/05 01:07:09;;;;;;;2.33;1.60;;;11.50;99.90;;;;;;5011742;28;20937;-56
2024/04/05 01:09:34;;;;;;;4.40;1.73;;;11.60;99.90;;;;;;5012735;28;20455;-56
2024/04/05 01:12:00;;;;;;;5.63;1.80;;;11.50;99.90;;;;;;5013800;28;20415;-55
2024/04/05 01:14:26;;;;;;;1.60;1.50;;;11.50;99.90;;;;;;5014225;28;20686;-55
2024/04/05 01:16:51;;;;;;;5.10;1.73;;;11.40;99.90;;;;;;5008245;28;20239;-57
2024/04/05 01:19:17;;;;;;;3.27;1.53;;;11.40;99.90;;;;;;5007637;28;20272;-51
2024/04/05 01:21:52;;;;;;;3.83;1.83;;;11.40;99.90;;;;;;5006806;28;20188;-58
2024/04/05 01:24:17;;;;;;;4.30;1.60;;;11.40;99.90;;;;;;5012418;28;20476;-53
2024/04/05 01:26:43;;;;;;;3.73;1.70;;;11.20;99.90;;;;;;5013439;28;20918;-56
2024/04/05 01:29:09;;;;;;;3.83;1.50;;;11.30;99.90;;;;;;5008081;28;20212;-54
2024/04/05 01:31:34;;;;;;;5.70;1.83;;;11.30;99.90;;;;;;5012981;28;20423;-56
2024/04/05 01:34:00;;;;;;;6.00;1.93;;;11.20;99.90;;;;;;5012887;28;20685;-58
2024/04/05 01:36:26;;;;;;;4.80;1.77;;;11.20;99.90;;;;;;5013560;28;20227;-53
2024/04/05 01:38:51;;;;;;;4.07;1.30;;;11.20;99.90;;;;;;5009419;28;20844;-54
2024/04/05 01:41:19;;;;;;;4.93;1.80;;;11.20;99.90;;;;;;5012591;28;20184;-57
2024/04/05 01:43:46;;;;;;;4.93;2.03;;;11.20;99.90;;;;;;5011492;28;20208;-53
2024/04/05 01:46:11;;;;;;;4.57;1.57;;;11.20;99.90;;;;;;5010450;28;20446;-49
2024/04/05 01:48:37;;;;;;;3.53;1.53;;;11.20;99.90;;;;;;5013109;28;20415;-53
2024/04/05 01:51:03;;;;;;;3.40;1.50;;;11.30;99.90;;;;;;5012848;28;20183;-55
2024/04/05 01:53:28;;;;;;;4.10;1.93;;;11.30;99.90;;;;;;5040402;22;20219;-60
2024/04/05 01:55:54;;;;;;;6.03;2.40;;;11.30;99.90;;;;;;5031118;28;20175;-56
2024/04/05 01:58:20;;;;;;;5.83;1.80;;;11.30;99.90;;;;;;5024830;28;20188;-58
2024/04/05 02:00:45;;;;;;;3.70;1.63;;;11.40;99.90;;;;;;5030223;28;20188;-58
2024/04/05 02:03:11;;;;;;;2.53;1.87;;;11.40;99.90;;;;;;5027525;28;20262;-59
2024/04/05 02:05:36;;;;;;;3.53;2.20;;;11.40;99.90;;;;;;5030396;28;20180;-56
2024/04/05 02:08:02;;;;;;;2.80;1.77;;;11.40;99.90;;;;;;5024563;28;20175;-61
2024/04/05 02:10:29;;;;;;;5.73;1.73;;;11.40;99.90;;;;;;5029882;28;20586;-57
2024/04/05 02:12:54;;;;;;;5.83;1.80;;;11.40;99.90;;;;;;5030380;28;20283;-57
2024/04/05 02:15:20;;;;;;;2.37;1.53;;;11.40;99.90;;;;;;5025263;28;20472;-58
2024/04/05 02:17:45;;;;;;;4.50;2.37;;;11.40;99.90;;;;;;5026861;28;20183;-60
2024/04/05 02:20:11;;;;;;;6.57;2.00;;;11.40;99.90;;;;;;5029481;28;20370;-57
2024/04/05 02:22:37;;;;;;;5.27;2.30;;;11.40;99.90;;;;;;5030123;28;20246;-57
2024/04/05 02:25:03;;;;;;;2.77;1.40;;;11.40;99.90;;;;;;5024712;28;21127;-59
2024/04/05 02:27:28;;;;;;;6.70;1.90;;;11.40;99.90;;;;;;5030034;28;20180;-59
2024/04/05 02:29:54;;;;;;;4.30;1.67;;;11.40;99.90;;;;;;5027495;28;20714;-55
2024/04/05 02:32:20;;;;;;;8.00;3.43;;;11.40;99.90;;;;;;5030330;28;20693;-57
2024/04/05 02:34:45;;;;;;;5.83;1.47;;;11.40;99.90;;;;;;5025650;28;20432;-58
2024/04/05 02:37:11;;;;;;;3.43;1.73;;;11.40;99.90;;;;;;5033089;28;20183;-55
2024/04/05 02:39:36;;;;;;;7.80;2.03;;;11.40;99.90;;;;;;5029034;28;20189;-56
2024/04/05 02:42:02;;;;;;;4.80;1.83;;;11.40;99.90;;;;;;5028034;28;20265;-56
2024/04/05 02:44:28;;;;;;;5.17;1.47;;;11.40;99.90;;;;;;5033045;28;20183;-58
2024/04/05 02:46:53;;;;;;;3.17;1.50;;;11.50;99.90;;;;;;5033856;28;20192;-61
2024/04/05 02:49:19;;;;;;;3.30;2.37;;;11.50;99.90;;;;;;5029580;28;20198;-56
2024/04/05 02:51:45;;;;;;;5.87;2.20;;;11.40;99.90;;;;;;5029708;28;20180;-59
2024/04/05 02:54:10;;;;;;;8.40;2.10;;;11.40;99.90;;;;;;5025640;28;20259;-58
2024/04/05 02:56:36;;;;;;;3.17;1.97;;;11.40;99.90;;;;;;5028012;28;20242;-59
2024/04/05 02:59:02;;;;;;;8.13;2.27;;;11.40;99.90;;;;;;5029019;28;20183;-59
2024/04/05 03:01:27;;;;;;;3.57;2.03;;;11.40;99.90;;;;;;5029741;28;20203;-57
2024/04/05 03:03:53;;;;;;;7.50;2.20;;;11.40;99.90;;;;;;5029654;28;20207;-60
2024/04/05 03:06:20;;;;;;;6.80;2.17;;;11.40;99.90;;;;;;5029283;28;20678;-58
2024/04/05 03:08:45;;;;;;;2.90;1.43;;;11.40;99.90;;;;;;5029352;28;20182;-56
2024/04/05 03:11:11;;;;;;;3.60;1.60;;;11.40;99.90;;;;;;5029149;28;20418;-55
2024/04/05 03:13:37;;;;;;;4.50;1.80;;;11.40;99.90;;;;;;5019414;28;20729;-57
2024/04/05 03:16:03;;;;;;;4.50;1.63;;;11.30;99.90;;;;;;5015318;28;20183;-54
2024/04/05 03:18:31;;;;;;;7.13;1.73;;;11.30;99.90;;;;;;5007934;28;20444;-55
2024/04/05 03:20:57;;;;;;;1.87;1.33;;;11.20;99.90;;;;;;5024068;28;20422;-56
2024/04/05 03:23:23;;;;;;;4.43;1.90;;;11.20;99.90;;;;;;5028905;28;20457;-61
2024/04/05 03:25:49;;;;;;;6.13;2.30;;;11.20;99.90;;;;;;5028317;28;20172;-57
2024/04/05 03:28:14;;;;;;;6.13;2.07;;;11.20;99.90;;;;;;5028857;28;20179;-59
2024/04/05 03:30:40;;;;;;;2.83;1.27;;;11.20;99.90;;;;;;5029307;28;20530;-58
2024/04/05 03:33:06;;;;;;;5.00;1.80;;;11.20;99.90;;;;;;5025355;28;20211;-61
2024/04/05 03:35:34;;;;;;;6.20;1.63;;;11.20;99.90;;;;;;5027263;28;20180;-59
2024/04/05 03:38:00;;;;;;;4.93;1.87;;;11.20;99.90;;;;;;5029031;28;20179;-55
2024/04/05 03:40:25;;;;;;;1.50;1.40;;;11.20;99.90;;;;;;5028612;28;20978;-57
2024/04/05 03:42:51;;;;;;;5.07;2.50;;;11.20;99.90;;;;;;5029204;28;20577;-57
2024/04/05 03:45:17;;;;;;;4.53;1.93;;;11.20;99.90;;;;;;5028998;28;20225;-56
2024/04/05 03:47:43;;;;;;;5.10;1.80;;;11.20;99.90;;;;;;5029420;28;20598;-57
2024/04/05 03:50:08;;;;;;;4.70;1.83;;;11.30;99.90;;;;;;5025208;28;20549;-60
2024/04/05 03:52:35;;;;;;;5.10;2.53;;;11.20;99.90;;;;;;5027344;28;20456;-58
2024/04/05 03:55:01;;;;;;;9.30;2.83;;;11.30;99.90;;;;;;5028830;28;20234;-57
2024/04/05 03:57:26;;;;;;;7.30;2.57;;;11.30;99.90;;;;;;5027803;28;20422;-59
2024/04/05 03:59:54;;;;;;;8.20;1.90;;;11.30;99.90;;;;;;5027162;28;20176;-60
2024/04/05 04:02:19;;;;;;;9.07;2.40;;;11.20;99.90;;;;;;5023621;28;20207;-58
2024/04/05 04:04:45;;;;;;;4.90;1.90;;;11.30;99.90;;;;;;5029472;28;20426;-58
2024/04/05 04:07:10;;;;;;;1.93;1.77;;;11.30;99.90;;;;;;5026945;28;20255;-57
2024/04/05 04:09:36;;;;;;;4.00;2.20;;;11.30;99.90;;;;;;5028783;28;20266;-58
2024/04/05 04:12:03;;;;;;;4.50;1.57;;;11.30;99.90;;;;;;5028594;28;20579;-57
2024/04/05 04:14:29;;;;;;;6.43;1.67;;;11.20;99.90;;;;;;5028867;28;20885;-57
2024/04/05 04:16:54;;;;;;;3.20;1.60;;;11.20;99.90;;;;;;5024632;28;20436;-59
2024/04/05 04:19:21;;;;;;;3.13;2.07;;;11.20;99.90;;;;;;5028614;28;20483;-57
2024/04/05 04:21:47;;;;;;;4.60;1.50;;;11.20;99.90;;;;;;5028306;28;20183;-59
2024/04/05 04:24:13;;;;;;;3.10;1.60;;;11.10;99.90;;;;;;5026881;28;20458;-59
2024/04/05 04:26:39;;;;;;;4.23;1.40;;;11.10;99.90;;;;;;5028342;28;20430;-61
2024/04/05 04:29:04;;;;;;;6.70;2.53;;;11.10;99.90;;;;;;5028624;28;20846;-59
2024/04/05 04:31:30;;;;;;;2.83;1.60;;;11.00;99.90;;;;;;5028664;28;20235;-59
2024/04/05 04:33:55;;;;;;;6.70;1.73;;;11.00;99.90;;;;;;5031756;28;20207;-58
2024/04/05 04:36:22;;;;;;;4.63;1.90;;;11.00;99.90;;;;;;5032348;28;20241;-60
2024/04/05 04:38:48;;;;;;;6.93;1.63;;;11.00;99.90;;;;;;5027125;28;20463;-58
2024/04/05 04:41:15;;;;;;;2.03;1.50;;;11.00;99.90;;;;;;5031509;28;20425;-60
2024/04/05 04:43:42;;;;;;;3.90;1.67;;;10.90;99.90;;;;;;5026909;28;20559;-59
2024/04/05 04:46:08;;;;;;;4.70;2.07;;;10.90;99.90;;;;;;5032358;28;20414;-58
2024/04/05 04:48:34;;;;;;;5.97;3.33;;;10.90;99.90;;;;;;5031900;28;20940;-57
2024/04/05 04:51:00;;;;;;;2.17;1.40;;;10.90;99.90;;;;;;5028325;28;20461;-57
2024/04/05 04:53:25;;;;;;;4.90;1.90;;;10.90;99.90;;;;;;5024710;28;20947;-56
2024/04/05 04:55:51;;;;;;;4.50;1.70;;;10.90;99.90;;;;;;5031363;28;20422;-58
2024/04/05 04:58:18;;;;;;;3.20;1.80;;;10.90;99.90;;;;;;5031873;28;20578;-59
2024/04/05 05:00:45;;;;;;;2.37;1.63;;;10.90;99.90;;;;;;5026431;28;20198;-57
2024/04/05 05:03:11;;;;;;;8.73;2.30;;;10.90;99.90;;;;;;5026715;28;21746;-60
2024/04/05 05:05:38;;;;;;;5.83;2.30;;;10.90;99.90;;;;;;5028187;28;20507;-58
2024/04/05 05:08:04;;;;;;;3.30;1.83;;;10.90;99.90;;;;;;5031735;28;20215;-55
2024/04/05 05:10:29;;;;;;;2.07;1.67;;;10.80;99.90;;;;;;5031178;28;20845;-53
2024/04/05 05:12:55;;;;;;;4.73;1.97;;;10.90;99.90;;;;;;5031832;28;20442;-60
2024/04/05 05:15:20;;;;;;;4.33;1.90;;;10.90;99.90;;;;;;5031792;28;20194;-54
2024/04/05 05:17:46;;;;;;;3.13;1.77;;;10.90;99.90;;;;;;5032177;28;20245;-57
2024/04/05 05:20:14;;;;;;;5.43;1.90;;;10.90;99.90;;;;;;5031612;28;20884;-58
2024/04/05 05:22:39;;;;;;;3.33;1.60;;;10.90;99.90;;;;;;5031443;28;20326;-57
2024/04/05 05:25:05;;;;;;;5.80;1.67;;;11.00;99.90;;;;;;5031671;28;20505;-59
2024/04/05 05:27:31;;;;;;;6.97;2.17;;;11.00;99.90;;;;;;5031203;28;20546;-60
2024/04/05 05:29:58;;;;;;;4.77;1.90;;;11.10;99.90;;;;;;5031725;28;20245;-60
2024/04/05 05:32:23;;;;;;;3.40;1.80;;;11.10;99.90;;;;;;5031061;28;20546;-58
2024/04/05 05:34:49;;;;;;;5.13;1.80;;;11.20;99.90;;;;;;5031351;28;20422;-60
2024/04/05 05:37:14;;;;;;;4.80;1.93;;;11.20;99.90;;;;;;5030743;28;20191;-58
2024/04/05 05:39:40;;;;;;;5.40;2.60;;;11.30;99.90;;;;;;5031340;28;20199;-57
2024/04/05 05:42:06;;;;;;;10.00;2.77;;;11.30;99.90;;;;;;5031210;28;20204;-58
2024/04/05 05:44:32;;;;;;;1.73;1.63;;;11.40;99.90;;;;;;5030781;28;20183;-58
2024/04/05 05:46:58;;;;;;;7.73;2.10;;;11.50;99.90;;;;;;5031233;28;20190;-58
2024/04/05 05:49:23;;;;;;;8.03;2.47;;;11.60;99.90;;;;;;5031023;28;20423;-57
2024/04/05 05:51:49;;;;;;;4.90;2.00;;;11.70;99.90;;;;;;5031158;28;20179;-56
2024/04/05 05:54:15;;;;;;;8.40;1.60;;;11.90;99.90;;;;;;5030965;28;20864;-58
2024/04/05 05:56:41;;;;;;;4.23;2.50;;;12.10;99.90;;;;;;5030504;28;20563;-57
2024/04/05 05:59:06;;;;;;;3.57;1.67;;;12.30;99.90;;;;;;5028736;28;20427;-58
2024/04/05 06:01:32;;;;;;;4.77;1.90;;;12.50;99.90;;;;;;5030828;28;20206;-57
2024/04/05 06:04:00;;;;;;;4.80;1.90;;;12.80;99.90;;;;;;5030979;28;20260;-58
2024/04/05 06:06:26;;;;;;;4.73;1.73;;;13.30;99.90;;;;;;5031098;28;20659;-59
2024/04/05 06:08:52;;;;;;;3.47;1.93;;;13.80;99.90;;;;;;5026594;28;20427;-60
2024/04/05 06:11:17;;;;;;;7.83;2.07;;;13.90;99.90;;;;;;5029928;28;20231;-58
2024/04/05 06:13:43;;;;;;;4.20;1.73;;;13.90;99.90;;;;;;5026386;28;20197;-60
2024/04/05 06:16:09;;;;;;;5.27;1.73;;;14.10;99.90;;;;;;5030355;28;20192;-56
2024/04/05 06:18:34;;;;;;;4.57;1.73;;;14.50;99.90;;;;;;5030704;28;20488;-57
2024/04/05 06:21:00;;;;;;;4.57;2.20;;;15.10;99.90;;;;;;5021723;28;20203;-61
2024/04/05 06:23:26;;;;;;;5.03;2.00;;;15.00;99.90;;;;;;5027902;28;20210;-59
2024/04/05 06:25:54;;;;;;;3.60;1.20;;;14.90;99.90;;;;;;5029974;28;20555;-60
2024/04/05 06:28:20;;;;;;;5.93;1.67;;;14.70;99.90;;;;;;5030122;28;20182;-59
2024/04/05 06:30:46;;;;;;;4.50;2.67;;;15.50;99.90;;;;;;5028326;28;20415;-59
2024/04/05 06:33:11;;;;;;;5.13;2.50;;;15.30;99.90;;;;;;5032352;28;20225;-59
2024/04/05 06:35:37;;;;;;;4.80;1.80;;;15.80;99.90;;;;;;5014969;28;20209;-68
2024/04/05 06:38:03;;;;;;;4.13;2.10;;;15.40;99.90;;;;;;5014248;28;20246;-66
2024/04/05 06:40:28;;;;;;;7.43;2.33;;;15.70;99.90;;;;;;5012148;28;20193;-57
2024/04/05 06:42:54;;;;;;;2.87;1.63;;;16.20;99.90;;;;;;5022952;28;20489;-58
2024/04/05 06:45:19;;;;;;;6.63;1.93;;;16.70;99.90;;;;;;5029227;28;20550;-58
2024/04/05 06:47:45;;;;;;;8.43;2.30;;;15.90;99.90;;;;;;5029244;28;20192;-60
2024/04/05 06:50:11;;;;;;;4.67;1.80;;;16.00;99.90;;;;;;5028947;28;20252;-60
2024/04/05 06:52:37;;;;;;;5.17;2.57;;;16.50;99.90;;;;;;5009554;28;20212;-60
2024/04/05 06:55:02;;;;;;;5.10;2.10;;;16.10;99.90;;;;;;5030052;28;20689;-57
2024/04/05 06:57:29;;;;;;;7.17;2.17;;;16.20;99.90;;;;;;5029131;28;20228;-59
2024/04/05 06:59:54;;;;;;;4.30;1.60;;;16.20;99.90;;;;;;5029879;28;20427;-57
2024/04/05 07:02:22;;;;;;;7.90;2.23;;;16.30;99.90;;;;;;5025277;28;21776;-59
2024/04/05 07:04:48;;;;;;;4.60;1.83;;;15.90;99.90;;;;;;5028932;28;20570;-59
2024/04/05 07:07:13;;;;;;;8.37;3.00;;;16.30;99.90;;;;;;5028658;28;20421;-58
2024/04/05 07:09:39;;;;;;;4.40;2.03;;;16.20;99.90;;;;;;5029339;28;20232;-59
2024/04/05 07:12:07;;;;;;;3.83;1.97;;;16.20;99.90;;;;;;5027805;28;20284;-55
2024/04/05 07:14:33;;;;;;;12.23;3.00;;;16.70;99.90;;;;;;5029276;28;20190;-55
2024/04/05 07:16:58;;;;;;;5.87;1.97;;;16.70;99.90;;;;;;5029460;28;20433;-58
2024/04/05 07:19:24;;;;;;;5.40;2.27;;;17.00;99.90;;;;;;5023219;28;20184;-58
2024/04/05 07:21:50;;;;;;;4.60;1.87;;;17.00;99.90;;;;;;5028782;28;20324;-56
2024/04/05 07:24:16;;;;;;;8.47;2.57;;;17.70;99.90;;;;;;5028581;28;20277;-59
2024/04/05 07:26:44;;;;;;;4.60;2.00;;;17.80;99.90;;;;;;5019123;28;20183;-60
2024/04/05 07:29:10;;;;;;;7.07;1.90;;;16.90;99.90;;;;;;5028697;28;20501;-59
2024/04/05 07:31:37;;;;;;;8.00;2.13;;;17.10;99.90;;;;;;5027519;28;20520;-58
2024/04/05 07:34:03;;;;;;;4.70;2.20;;;17.40;99.90;;;;;;5027874;28;20202;-58
2024/04/05 07:36:29;;;;;;;6.20;2.53;;;17.70;99.90;;;;;;5029151;28;20497;-60
2024/04/05 07:38:55;;;;;;;4.13;1.40;;;18.20;99.90;;;;;;5026223;28;20429;-60
2024/04/05 07:41:21;;;;;;;6.70;2.43;;;18.20;99.90;;;;;;5025424;28;20517;-61
2024/04/05 07:43:46;;;;;;;11.43;2.00;;;17.90;99.90;;;;;;5027716;28;20743;-64
2024/04/05 07:46:12;;;;;;;6.83;2.97;;;17.90;99.90;;;;;;5029243;28;20929;-60
2024/04/05 07:48:38;;;;;;;9.00;3.50;;;17.70;99.90;;;;;;5033046;28;20217;-61
2024/04/05 07:51:04;;;;;;;7.30;2.40;;;18.40;99.90;;;;;;5028416;28;20188;-62
2024/04/05 07:53:30;;;;;;;5.80;3.03;;;18.40;99.90;;;;;;5028720;28;20946;-58
2024/04/05 07:55:55;;;;;;;8.10;2.07;;;18.00;99.90;;;;;;5028932;28;20456;-56
2024/04/05 07:58:21;;;;;;;8.53;3.80;;;18.00;99.90;;;;;;5021157;28;20183;-60
2024/04/05 08:00:48;;;;;;;12.70;3.63;;;18.00;99.90;;;;;;5029289;28;20173;-53
2024/04/05 08:03:14;;;;;;;10.80;2.23;;;18.20;99.90;;;;;;5028182;28;20465;-55
2024/04/05 08:05:40;;;;;;;9.40;3.07;;;17.90;99.90;;;;;;5028623;28;20940;-57
2024/04/05 08:08:05;;;;;;;7.30;2.33;;;18.00;99.90;;;;;;5030968;28;20459;-57
2024/04/05 08:10:31;;;;;;;6.77;3.03;;;17.60;99.90;;;;;;5032790;28;20191;-56
2024/04/05 08:12:58;;;;;;;11.87;2.90;;;17.50;99.90;;;;;;5032092;28;20205;-56
2024/04/05 08:15:24;;;;;;;8.80;3.10;;;17.60;99.90;;;;;;5031513;28;20187;-57
2024/04/05 08:17:49;;;;;;;6.93;2.83;;;17.80;99.90;;;;;;5029443;28;20414;-65
2024/04/05 08:20:16;;;;;;;35.37;21.83;;;17.60;99.90;;;;;;5033203;28;20464;-57
2024/04/05 08:22:41;;;;;;;9.37;2.63;;;17.40;99.90;;;;;;5034830;28;20416;-59
2024/04/05 08:25:07;;;;;;;7.93;2.10;;;17.30;99.90;;;;;;5017636;28;20452;-58
2024/04/05 08:27:34;;;;;;;8.30;2.80;;;17.40;99.90;;;;;;5036654;28;20352;-64
2024/04/05 08:30:00;;;;;;;8.03;2.37;;;17.30;99.90;;;;;;5034177;28;20427;-56
2024/04/05 08:32:26;;;;;;;8.00;2.33;;;17.40;99.90;;;;;;5027944;28;20472;-56
2024/04/05 08:34:52;;;;;;;8.47;2.60;;;17.50;99.90;;;;;;5034901;28;20521;-55
2024/04/05 08:37:18;;;;;;;15.67;7.57;;;17.30;99.90;;;;;;5031880;28;20504;-59
2024/04/05 08:39:44;;;;;;;7.27;3.60;;;17.40;99.90;;;;;;5028676;28;20201;-56
2024/04/05 08:42:19;;;;;;;7.47;2.50;;;17.00;99.90;;;;;;5030957;28;20200;-57
2024/04/05 08:44:49;;;;;;;6.10;1.90;;;16.60;99.90;;;;;;5030843;28;20292;-59
2024/04/05 08:47:16;;;;;;;9.23;3.17;;;16.40;99.90;;;;;;5031925;28;20754;-56
2024/04/05 08:49:46;;;;;;;5.27;2.33;;;16.60;99.90;;;;;;5013878;28;20436;-59
2024/04/05 08:52:13;;;;;;;6.63;2.53;;;16.50;99.90;;;;;;5032424;28;20813;-54
2024/04/05 08:54:38;;;;;;;15.33;3.30;;;16.40;99.90;;;;;;5030728;28;20423;-57
2024/04/05 08:57:05;;;;;;;8.57;2.80;;;16.70;99.90;;;;;;5031894;28;20481;-59
2024/04/05 08:59:33;;;;;;;7.57;2.33;;;17.00;99.90;;;;;;5031375;28;20186;-56
2024/04/05 09:02:00;;;;;;;6.40;2.13;;;17.20;99.90;;;;;;5032082;28;20428;-55
2024/04/05 09:04:27;;;;;;;5.83;1.70;;;17.60;99.90;;;;;;5034733;28;20517;-57
2024/04/05 09:06:54;;;;;;;5.97;2.20;;;17.50;99.90;;;;;;5032748;28;20428;-62
2024/04/05 09:09:25;;;;;;;11.47;2.17;;;17.50;99.90;;;;;;5033298;28;20422;-56
2024/04/05 09:12:02;;;;;;;11.40;2.47;;;17.80;99.90;;;;;;5026183;28;20424;-56
2024/04/05 09:14:29;;;;;;;4.10;2.03;;;17.60;99.90;;;;;;5033469;28;20416;-63
2024/04/05 09:16:55;;;;;;;7.83;1.73;;;17.60;99.90;;;;;;5031196;28;20497;-62
2024/04/05 09:19:22;;;;;;;5.33;2.37;;;17.80;99.90;;;;;;5031381;28;20534;-59
2024/04/05 09:21:48;;;;;;;7.10;3.30;;;18.10;99.90;;;;;;5030203;28;20414;-60
2024/04/05 09:24:15;;;;;;;7.47;2.43;;;18.40;99.90;;;;;;5039790;28;20471;-57
2024/04/05 09:26:41;;;;;;;6.10;2.20;;;18.10;99.90;;;;;;5037031;28;20509;-57
2024/04/05 09:29:07;;;;;;;6.83;2.47;;;18.00;99.90;;;;;;5036957;28;20418;-58
2024/04/05 09:31:34;;;;;;;10.10;2.40;;;18.10;99.90;;;;;;5037309;28;20211;-57
2024/04/05 09:34:11;;;;;;;14.23;2.50;;;18.20;99.90;;;;;;5036060;28;20830;-59
2024/04/05 09:36:38;;;;;;;3.33;1.47;;;18.10;99.90;;;;;;5032515;28;20434;-56
2024/04/05 09:39:13;;;;;;;21.33;11.93;;;17.80;99.90;;;;;;5030299;28;20412;-59
2024/04/05 09:41:40;;;;;;;6.40;2.70;;;17.90;99.90;;;;;;5030684;28;20543;-57
2024/04/05 09:44:07;;;;;;;5.93;2.67;;;17.90;99.90;;;;;;5030190;28;20507;-59
2024/04/05 09:46:34;;;;;;;7.87;2.37;;;17.70;99.90;;;;;;5030789;28;20414;-54
2024/04/05 09:49:01;;;;;;;2.53;1.90;;;17.70;99.90;;;;;;5030571;28;20431;-61
2024/04/05 09:51:44;;;;;;;7.30;2.50;;;17.60;99.90;;;;;;5030526;28;20422;-57
2024/04/05 09:54:11;;;;;;;8.53;2.33;;;17.80;99.90;;;;;;5030640;28;20448;-56
2024/04/05 09:56:38;;;;;;;10.53;2.80;;;17.70;99.90;;;;;;5029780;28;20433;-63
2024/04/05 09:59:10;;;;;;;6.00;4.10;;;17.50;99.90;;;;;;5030317;28;20430;-56
2024/04/05 10:01:39;;;;;;;11.87;2.37;;;17.50;99.90;;;;;;5030576;28;20530;-57
2024/04/05 10:04:07;;;;;;;4.87;2.20;;;17.30;99.90;;;;;;5031697;28;20808;-58
2024/04/05 10:06:39;;;;;;;6.23;2.20;;;17.50;99.90;;;;;;5030606;28;20427;-63
2024/04/05 10:09:18;;;;;;;4.10;2.03;;;17.60;99.90;;;;;;5037055;28;20418;-61
2024/04/05 10:11:45;;;;;;;5.57;2.10;;;17.70;99.90;;;;;;5038903;28;20414;-62
2024/04/05 10:14:28;;;;;;;9.20;2.80;;;18.00;99.90;;;;;;5033641;28;20515;-59
2024/04/05 10:17:06;;;;;;;10.23;2.30;;;18.20;99.90;;;;;;5030584;28;20437;-65
2024/04/05 10:19:36;;;;;;;5.30;2.10;;;18.40;99.90;;;;;;5038665;28;20428;-59
2024/04/05 10:22:05;;;;;;;3.33;1.90;;;18.50;99.90;;;;;;5030616;28;20804;-60
2024/04/05 10:24:32;;;;;;;5.83;2.80;;;18.60;99.90;;;;;;5030369;28;20464;-60
2024/04/05 10:26:58;;;;;;;3.90;1.33;;;18.40;99.90;;;;;;5013254;28;20417;-59
2024/04/05 10:29:25;;;;;;;5.10;1.90;;;18.20;99.90;;;;;;5030672;28;20428;-58
2024/04/05 10:32:00;;;;;;;6.43;1.80;;;17.90;99.90;;;;;;5029779;28;20420;-58
2024/04/05 10:34:26;;;;;;;2.97;1.70;;;17.90;99.90;;;;;;5030177;28;20513;-54
2024/04/05 10:36:53;;;;;;;4.50;2.00;;;18.00;99.90;;;;;;5031337;28;20419;-59
2024/04/05 10:39:19;;;;;;;5.50;2.37;;;18.00;99.90;;;;;;5010607;28;20216;-58
2024/04/05 10:41:46;;;;;;;6.20;2.70;;;18.00;99.90;;;;;;5029194;28;20467;-55
2024/04/05 10:44:13;;;;;;;4.00;1.83;;;17.90;99.90;;;;;;5029895;28;20461;-57
2024/04/05 10:46:45;;;;;;;6.13;1.80;;;18.10;99.90;;;;;;5029219;28;20427;-61
2024/04/05 10:49:11;;;;;;;7.10;3.87;;;18.10;99.90;;;;;;5023974;28;20482;-58
2024/04/05 10:51:37;;;;;;;9.13;2.60;;;18.30;99.90;;;;;;5029371;28;20901;-60
2024/04/05 10:54:14;;;;;;;8.67;2.97;;;18.50;99.90;;;;;;5030001;28;20465;-58
2024/04/05 10:56:42;;;;;;;6.70;2.63;;;18.50;99.90;;;;;;5030473;28;20507;-60
2024/04/05 10:59:07;;;;;;;7.47;2.00;;;18.40;99.90;;;;;;5029054;28;20427;-59
2024/04/05 11:01:37;;;;;;;1.90;1.57;;;18.50;99.90;;;;;;5030696;28;20522;-57
2024/04/05 11:04:04;;;;;;;3.27;2.10;;;18.60;99.90;;;;;;5031045;28;20227;-57
2024/04/05 11:06:33;;;;;;;3.63;1.70;;;18.90;99.90;;;;;;5030755;28;20495;-61
2024/04/05 11:08:59;;;;;;;4.77;2.27;;;18.70;99.90;;;;;;5030647;28;20944;-59
2024/04/05 11:11:28;;;;;;;4.43;1.80;;;18.60;99.90;;;;;;5037035;28;20618;-57
2024/04/05 11:14:08;;;;;;;9.00;2.30;;;18.60;99.90;;;;;;5025447;28;20468;-60
2024/04/05 11:16:34;;;;;;;4.60;1.67;;;18.90;99.90;;;;;;5030348;28;20421;-59
2024/04/05 11:19:00;;;;;;;4.17;1.90;;;18.80;99.90;;;;;;5030334;28;20969;-56
2024/04/05 11:21:26;;;;;;;5.10;2.00;;;19.20;99.90;;;;;;5029814;28;20423;-56
2024/04/05 11:23:54;;;;;;;4.67;2.27;;;19.20;99.90;;;;;;5029573;28;20465;-55
2024/04/05 11:26:31;;;;;;;4.93;1.80;;;19.10;99.90;;;;;;5011265;28;20427;-57
2024/04/05 11:28:58;;;;;;;5.60;1.70;;;19.00;99.90;;;;;;5028124;28;20512;-55
2024/04/05 11:31:28;;;;;;;4.20;1.73;;;19.10;99.90;;;;;;5020798;28;20893;-59
2024/04/05 11:33:54;;;;;;;4.80;2.40;;;19.00;99.90;;;;;;5028281;28;20990;-59
2024/04/05 11:36:20;;;;;;;4.90;2.43;;;18.80;99.90;;;;;;5027874;28;20433;-57
2024/04/05 11:38:47;;;;;;;5.50;2.20;;;18.40;99.90;;;;;;5026515;28;20448;-58
2024/04/05 11:41:13;;;;;;;2.73;1.80;;;18.70;99.90;;;;;;5028650;28;20910;-59
2024/04/05 11:43:39;;;;;;;5.07;1.80;;;18.70;99.90;;;;;;5030356;28;20464;-60
2024/04/05 11:46:04;;;;;;;5.77;2.10;;;18.80;99.90;;;;;;5032794;28;20178;-59
2024/04/05 11:48:31;;;;;;;3.50;1.70;;;18.90;99.90;;;;;;5033395;28;20516;-55
2024/04/05 11:50:57;;;;;;;6.07;2.80;;;18.80;99.90;;;;;;5032738;28;20188;-59
2024/04/05 11:53:22;;;;;;;5.20;2.03;;;18.70;99.90;;;;;;5033253;28;20447;-56
2024/04/05 11:55:48;;;;;;;3.90;1.30;;;19.00;99.90;;;;;;5033112;28;20262;-56
2024/04/05 11:58:13;;;;;;;7.13;2.07;;;19.20;99.90;;;;;;5039561;28;20276;-59
2024/04/05 12:00:40;;;;;;;8.40;2.37;;;19.00;99.90;;;;;;5032630;28;20188;-60
2024/04/05 12:03:06;;;;;;;5.10;2.60;;;19.20;99.90;;;;;;5031718;28;20219;-57
2024/04/05 12:05:33;;;;;;;6.90;2.67;;;19.80;99.90;;;;;;5032335;28;20538;-56
2024/04/05 12:07:59;;;;;;;4.23;2.40;;;20.00;99.90;;;;;;5029125;28;20703;-61
2024/04/05 12:10:24;;;;;;;4.10;2.47;;;20.10;99.90;;;;;;5033127;28;20424;-56
2024/04/05 12:12:50;;;;;;;3.43;2.40;;;20.10;99.90;;;;;;5032752;28;20233;-58
2024/04/05 12:15:17;;;;;;;8.33;2.60;;;20.00;99.90;;;;;;5026978;28;20208;-58
2024/04/05 12:17:43;;;;;;;3.40;2.30;;;19.60;99.90;;;;;;5032544;28;20177;-57
2024/04/05 12:20:10;;;;;;;4.50;2.33;;;19.40;99.90;;;;;;5032879;28;20467;-64
2024/04/05 12:22:37;;;;;;;3.17;1.93;;;19.30;99.90;;;;;;5031559;28;20303;-57
2024/04/05 12:25:04;;;;;;;3.57;1.60;;;19.50;99.90;;;;;;5032194;28;20920;-56
2024/04/05 12:27:30;;;;;;;3.27;1.80;;;19.70;99.90;;;;;;5032621;28;20528;-59
2024/04/05 12:29:55;;;;;;;5.03;2.00;;;19.70;99.90;;;;;;5032252;28;20405;-60
2024/04/05 12:32:21;;;;;;;6.53;2.00;;;19.70;99.90;;;;;;5033545;28;20271;-57
2024/04/05 12:34:47;;;;;;;7.50;2.10;;;19.70;99.90;;;;;;5033757;28;20273;-68
2024/04/05 12:37:21;;;;;;;4.37;2.00;;;19.70;99.90;;;;;;5031890;28;20183;-60
2024/04/05 12:39:48;;;;;;;3.30;1.73;;;19.60;99.90;;;;;;5030451;28;20183;-57
2024/04/05 12:42:15;;;;;;;5.90;1.93;;;19.70;99.90;;;;;;5030888;28;20504;-58